Sand Spring Valley, Nevada Weather observations

Data are for 10 minute period ending at time listed.
 Day   Time   Solar   Ave.   Ave.  Ave.  Vector  Max.   Baro.   Total    
  of    of     Rad.   Air    Rel.  Wind   Wind   Wind  Press.  Precip.   
Year   Day            Temp.  Hum.  Speed  Dir.   Gust                    
2016   (PST)  Kw/m2    F      %     mph   deg.    mph    mb.     in.     
-------------------------------------------------------------------------
 182    0:00   0.00   60.9    78    1.8   234     3.9   853.6    0.00 
 182    0:10   0.00   60.7    77    3.0   249     5.3   853.7    0.00 
 182    0:20   0.00   61.6    75    4.9   248     8.7   853.9    0.00 
 182    0:30   0.00   61.8    77    2.8   250     4.5   853.9    0.00 
 182    0:40   0.00   61.7    77    2.1   256     4.0   853.8    0.00 
 182    0:50   0.00   62.6    74    5.5   242     8.0   853.6    0.00 
 182    1:00   0.00   63.6    71    2.8   250     4.7   853.5    0.00 
 182    1:10   0.00   63.1    72    1.1   304     3.7   853.5    0.00 
 182    1:20   0.00   63.0    72    2.4   200     5.8   853.7    0.00 
 182    1:30   0.00   63.2    71    4.5   229     6.4   853.8    0.00 
 182    1:40   0.00   64.3    67    4.7   234     7.1   853.8    0.00 
 182    1:50   0.00   65.5    61    7.1   234     9.8   853.8    0.00 
 182    2:00   0.00   65.2    62    5.8   249     8.8   853.9    0.00 
 182    2:10   0.00   64.4    64    4.1   252     6.4   854.0    0.00 
 182    2:20   0.00   64.3    64    2.9   249     4.5   854.0    0.00 
 182    2:30   0.00   63.8    66    0.1   266     3.2   854.0    0.00 
 182    2:40   0.00   64.0    65    0.0     0     0.0   854.1    0.00 
 182    2:50   0.00   62.8    71    1.8   131     4.9   854.0    0.00 
 182    3:00   0.00   62.0    72    2.2   140     4.9   854.0    0.00 
 182    3:10   0.00   61.5    73    0.2   129     2.0   854.0    0.00 
 182    3:20   0.00   62.2    70    0.0     0     0.0   854.0    0.00 
 182    3:30   0.00   62.0    70    0.7   260     4.3   853.8    0.00 
 182    3:40   0.00   59.4    78    1.8   286     5.8   853.9    0.00 
 182    3:50   0.00   59.8    78    2.0   309     3.1   853.9    0.00 
 182    4:00   0.00   59.2    79    0.4   245     3.4   853.9    0.00 
 182    4:10   0.00   58.0    81    3.9   231     4.7   853.9    0.00 
 182    4:20   0.00   58.2    83    4.5   222     6.0   853.9    0.00 
 182    4:30   0.00   59.2    82    3.4   226     4.8   853.9    0.00 
 182    4:40   0.00   60.3    79    3.1   243     4.7   853.9    0.00 
 182    4:50   0.00   61.0    76    2.5   256     4.2   854.1    0.00 
 182    5:00   0.00   60.5    77    2.9   280     4.2   854.1    0.00 
 182    5:10   0.00   60.1    78    3.2   272     4.4   854.1    0.00 
 182    5:20   0.00   60.1    78    3.4   262     4.7   854.1    0.00 
 182    5:30   0.00   60.2    78    3.4   241     5.2   854.1    0.00 
 182    5:40   0.00   60.4    77    4.0   224     5.9   854.2    0.00 
 182    5:50   0.00   61.2    77    3.1   219     4.7   854.2    0.00 
 182    6:00   0.00   63.0    72    3.4   225     5.0   854.2    0.00 
 182    6:10   0.00   65.7    68    3.6   218     5.7   854.3    0.00 
 182    6:20   0.00   69.0    60    2.9   218     5.0   854.4    0.00 
 182    6:30   0.00   70.3    56    2.2   228     3.7   854.5    0.00 
 182    6:40   0.00   71.8    49    0.4   231     2.4   854.5    0.00 
 182    6:50   0.00   74.5    43    0.0     0     0.0   854.7    0.00 
 182    7:00   0.00   77.1    40    0.0     0     0.0   854.7    0.00 
 182    7:10   0.00   76.0    39    0.0     0     0.0   854.7    0.00 
 182    7:20   0.00   74.3    46    0.3   156     1.9   854.8    0.00 
 182    7:30   0.00   75.5    40    0.4   156     2.1   854.8    0.00 
 182    7:40   0.00   77.6    36    0.0   156     0.9   854.7    0.00 
 182    7:50   0.00   78.9    33    0.1    44     0.9   854.8    0.00 
 182    8:00   0.00   79.1    32    0.0    38     1.3   854.8    0.00 
 182    8:10   0.00   80.9    32    0.0     0     0.0   854.7    0.00 
 182    8:20   0.00   81.3    32    0.8   297     3.8   854.6    0.00 
 182    8:30   0.00   78.6    36    2.4   301     4.7   854.5    0.00 
 182    8:40   0.00   79.5    33    2.4   318     5.2   854.5    0.00 
 182    8:50   0.00   81.8    26    0.9   344     3.6   854.4    0.00 
 182    9:00   0.00   83.0    27    0.7   326     2.7   854.4    0.00 
 182    9:10   0.00   84.0    27    1.3    66     3.5   854.2    0.00 
 182    9:20   0.00   85.0    26    0.8   286     3.2   854.1    0.00 
 182    9:30   0.00   84.9    28    1.2   304     5.1   854.1    0.00 
 182    9:40   0.00   86.3    27    1.6    94     4.2   854.0    0.00 
 182    9:50   0.00   86.8    24    2.3    94     8.3   853.8    0.00 
 182   10:00   0.00   87.3    24    6.1   151    12.2   853.7    0.00 
 182   10:10   0.00   87.4    26    5.3   140    21.9   853.6    0.00 
 182   10:20   0.00   86.8    27    8.8   205    14.2   853.7    0.00 
 182   10:30   0.00   86.4    26    9.0   192    16.0   853.7    0.00 
 182   10:40   0.00   87.9    26    6.4   208    12.8   853.7    0.00 
 182   10:50   0.00   87.9    25   10.2   212    16.4   853.6    0.00 
 182   11:00   0.00   87.9    26   12.4   206    21.3   853.4    0.00 
 182   11:10   0.00   88.1    25   11.8   202    21.5   853.4    0.00 
 182   11:20   0.00   88.2    24   14.6   194    21.3   853.2    0.00 
 182   11:30   0.00   88.6    25   10.7   204    23.8   853.1    0.00 
 182   11:40   0.00   88.1    26   10.7   208    21.0   853.0    0.00 
 182   11:50   0.00   87.1    26   12.0   210    21.2   852.8    0.00 
 182   12:00   0.00   88.0    26   11.3   207    19.2   852.7    0.00 
 182   12:10   0.00   86.9    27   11.5   217    19.2   852.6    0.00 
 182   12:20   0.00   88.1    26   12.7   193    20.0   852.5    0.00 
 182   12:30   0.00   89.5    24   10.9   172    17.0   852.4    0.00 
 182   12:40   0.00   89.2    25   11.9   204    21.7   852.4    0.00 
 182   12:50   0.00   89.2    24   12.2   207    23.8   852.3    0.00 
 182   13:00   0.00   89.1    24   12.4   202    22.2   852.1    0.00 
 182   13:10   0.00   90.8    22   13.2   181    21.0   851.9    0.00 
 182   13:20   0.00   90.2    21   14.3   187    21.0   851.8    0.00 
 182   13:30   0.00   91.5    21   13.8   182    24.2   851.7    0.00 
 182   13:40   0.00   91.9    21   13.0   184    21.5   851.6    0.00 
 182   13:50   0.00   90.4    22   11.0   195    20.9   851.8    0.00 
 182   14:00   0.00   81.6    28   15.3   348    33.2   852.7    0.00 
 182   14:10   0.00   72.6    35   24.8   329    35.9   852.7    0.00 
 182   14:20   0.00   69.0    48   17.1   359    34.2   853.4    0.00 
 182   14:30   0.00   66.2    62   13.1    17    21.6   853.8    0.00 
 182   14:40   0.00   66.1    67    9.7    23    15.3   853.9    0.01 
 182   14:50   0.00   66.0    68    8.9    31    13.1   853.5    0.01 
 182   15:00   0.00   66.1    66    8.9    76    11.7   853.1    0.01 
 182   15:10   0.00   65.5    73    5.0   175     8.8   852.9    0.00 
 182   15:20   0.00   65.6    77    7.5   199    10.3   852.9    0.01 
 182   15:30   0.00   66.8    72    7.1   194     9.3   853.0    0.00 
 182   15:40   0.00   67.1    72    6.9   208    10.3   852.8    0.00 
 182   15:50   0.00   67.5    72    8.1   221    11.5   852.8    0.00 
 182   16:00   0.00   67.6    74    6.4   268    13.7   853.0    0.00 
 182   16:10   0.00   68.1    71    5.1   230    10.4   852.9    0.00 
 182   16:20   0.00   68.5    71    7.5   200    12.1   852.6    0.00 
 182   16:30   0.00   70.6    60    8.4   151    15.0   852.7    0.00 
 182   16:40   0.00   71.3    56    7.1   114    16.4   852.9    0.02 
 182   16:50   0.00   69.6    59    4.6    83    13.4   852.8    0.00 
 182   17:00   0.00   70.8    53    8.3   123    14.0   852.6    0.00 
 182   17:10   0.00   71.4    50    7.0   101    13.9   852.6    0.00 
 182   17:20   0.00   71.3    50    5.0    58    10.4   852.8    0.01 
 182   17:30   0.00   70.3    54    9.3    24    16.1   852.6    0.01 
 182   17:40   0.00   68.5    58   14.1    32    25.2   852.6    0.07 
 182   17:50   0.00   67.4    62   17.3    43    28.6   852.2    0.00 
 182   18:00   0.00   68.3    59   13.1    43    24.1   852.8    0.00 
 182   18:10   0.00   67.6    62   10.9    58    20.0   853.2    0.00 
 182   18:20   0.00   67.3    63   11.2    75    19.2   853.5    0.00 
 182   18:30   0.00   67.6    61   13.8    67    21.5   853.5    0.00 
 182   18:40   0.00   68.0    59   16.4    62    24.1   853.2    0.00 
 182   18:50   0.00   68.5    57   17.5    62    25.1   853.0    0.00 
 182   19:00   0.00   68.4    56   15.3    66    22.6   853.0    0.00 
 182   19:10   0.00   68.4    56   13.2    77    20.2   853.1    0.00 
 182   19:20   0.00   68.4    55    8.8    63    14.5   853.4    0.00 
 182   19:30   0.00   67.9    57    4.6   334     8.3   853.7    0.00 
 182   19:40   0.00   69.1    53    5.7    30     9.4   853.5    0.00 
 182   19:50   0.00   69.3    52    9.5   354    15.3   853.9    0.00 
 182   20:00   0.00   67.9    60   10.8   329    15.2   854.4    0.00 
 182   20:10   0.00   67.6    60    6.2   338    12.9   854.9    0.00 
 182   20:20   0.00   68.2    56    0.9   340     4.7   855.2    0.00 
 182   20:30   0.00   68.1    56    1.5   282     5.2   855.5    0.00 
 182   20:40   0.00   68.0    58    4.4   295    11.4   855.8    0.00 
 182   20:50   0.00   68.5    54    7.4   321    12.5   855.8    0.00 
 182   21:00   0.00   69.5    50    4.9     9     9.1   855.9    0.00 
 182   21:10   0.00   69.3    51    5.4    22    12.9   856.0    0.00 
 182   21:20   0.00   69.6    48    6.0   356    14.6   856.1    0.00 
 182   21:30   0.00   69.1    50    6.6    27    10.9   856.4    0.00 
 182   21:40   0.00   68.5    53    2.6    68     8.3   856.5    0.01 
 182   21:50   0.00   67.2    57    2.0    27     8.3   856.3    0.00 

Return to Sand Spring Valley graphs page.


Western Regional Climate Center,wrcc@dri.edu